sensor_id;sensor_type;location;lat;lon;timestamp;P1;durP1;ratioP1;P2;durP2;ratioP2
70102;SDS011;57470;50.034;15.256;2022-11-27T00:00:56;12.38;;;2.80;;
70102;SDS011;57470;50.034;15.256;2022-11-27T00:03:21;5.93;;;2.67;;
70102;SDS011;57470;50.034;15.256;2022-11-27T00:05:54;7.23;;;3.13;;
70102;SDS011;57470;50.034;15.256;2022-11-27T00:08:21;6.80;;;3.07;;
70102;SDS011;57470;50.034;15.256;2022-11-27T00:10:48;8.18;;;2.30;;
70102;SDS011;57470;50.034;15.256;2022-11-27T00:13:13;7.40;;;2.37;;
70102;SDS011;57470;50.034;15.256;2022-11-27T00:15:39;7.73;;;2.37;;
70102;SDS011;57470;50.034;15.256;2022-11-27T00:18:04;6.97;;;2.67;;
70102;SDS011;57470;50.034;15.256;2022-11-27T00:20:29;7.43;;;2.50;;
70102;SDS011;57470;50.034;15.256;2022-11-27T00:22:55;6.95;;;2.55;;
70102;SDS011;57470;50.034;15.256;2022-11-27T00:25:21;5.50;;;1.92;;
70102;SDS011;57470;50.034;15.256;2022-11-27T00:27:46;8.97;;;3.30;;
70102;SDS011;57470;50.034;15.256;2022-11-27T00:30:12;7.83;;;2.57;;
70102;SDS011;57470;50.034;15.256;2022-11-27T00:32:37;5.90;;;2.80;;
70102;SDS011;57470;50.034;15.256;2022-11-27T00:35:03;13.60;;;3.07;;
70102;SDS011;57470;50.034;15.256;2022-11-27T00:37:29;6.40;;;2.47;;
70102;SDS011;57470;50.034;15.256;2022-11-27T00:39:54;10.55;;;2.72;;
70102;SDS011;57470;50.034;15.256;2022-11-27T00:42:19;10.00;;;2.33;;
70102;SDS011;57470;50.034;15.256;2022-11-27T00:44:45;4.63;;;2.17;;
70102;SDS011;57470;50.034;15.256;2022-11-27T00:47:10;7.80;;;2.93;;
70102;SDS011;57470;50.034;15.256;2022-11-27T00:49:35;7.73;;;2.20;;
70102;SDS011;57470;50.034;15.256;2022-11-27T00:52:01;10.40;;;2.83;;
70102;SDS011;57470;50.034;15.256;2022-11-27T00:54:26;10.60;;;2.67;;
70102;SDS011;57470;50.034;15.256;2022-11-27T00:56:52;10.20;;;3.23;;
70102;SDS011;57470;50.034;15.256;2022-11-27T00:59:17;6.95;;;1.77;;
70102;SDS011;57470;50.034;15.256;2022-11-27T01:01:43;6.80;;;2.30;;
70102;SDS011;57470;50.034;15.256;2022-11-27T01:04:11;4.28;;;1.58;;
70102;SDS011;57470;50.034;15.256;2022-11-27T01:06:38;7.60;;;2.45;;
70102;SDS011;57470;50.034;15.256;2022-11-27T01:09:03;17.00;;;2.85;;
70102;SDS011;57470;50.034;15.256;2022-11-27T01:11:30;7.45;;;3.08;;
70102;SDS011;57470;50.034;15.256;2022-11-27T01:13:58;5.80;;;2.05;;
70102;SDS011;57470;50.034;15.256;2022-11-27T01:16:26;6.17;;;1.87;;
70102;SDS011;57470;50.034;15.256;2022-11-27T01:18:53;7.47;;;2.85;;
70102;SDS011;57470;50.034;15.256;2022-11-27T01:21:21;8.95;;;2.30;;
70102;SDS011;57470;50.034;15.256;2022-11-27T01:23:47;8.33;;;2.17;;
70102;SDS011;57470;50.034;15.256;2022-11-27T01:26:13;5.03;;;1.95;;
70102;SDS011;57470;50.034;15.256;2022-11-27T01:28:40;6.85;;;1.98;;
70102;SDS011;57470;50.034;15.256;2022-11-27T01:31:06;6.05;;;2.53;;
70102;SDS011;57470;50.034;15.256;2022-11-27T01:33:43;6.77;;;1.87;;
70102;SDS011;57470;50.034;15.256;2022-11-27T01:36:10;4.05;;;1.48;;
70102;SDS011;57470;50.034;15.256;2022-11-27T01:38:37;5.97;;;2.65;;
70102;SDS011;57470;50.034;15.256;2022-11-27T01:41:06;10.27;;;2.63;;
70102;SDS011;57470;50.034;15.256;2022-11-27T01:43:57;6.10;;;1.92;;
70102;SDS011;57470;50.034;15.256;2022-11-27T01:48:48;5.77;;;1.57;;
70102;SDS011;57470;50.034;15.256;2022-11-27T01:51:15;6.88;;;2.42;;
70102;SDS011;57470;50.034;15.256;2022-11-27T01:53:42;9.15;;;2.03;;
70102;SDS011;57470;50.034;15.256;2022-11-27T01:56:07;4.20;;;1.83;;
70102;SDS011;57470;50.034;15.256;2022-11-27T01:58:34;5.90;;;1.60;;
70102;SDS011;57470;50.034;15.256;2022-11-27T02:01:00;4.07;;;1.80;;
70102;SDS011;57470;50.034;15.256;2022-11-27T02:03:25;4.28;;;1.65;;
70102;SDS011;57470;50.034;15.256;2022-11-27T02:05:51;4.17;;;1.53;;
70102;SDS011;57470;50.034;15.256;2022-11-27T02:08:17;4.53;;;1.92;;
70102;SDS011;57470;50.034;15.256;2022-11-27T02:10:50;7.43;;;2.77;;
70102;SDS011;57470;50.034;15.256;2022-11-27T02:22:25;8.75;;;3.63;;
70102;SDS011;57470;50.034;15.256;2022-11-27T02:30:22;6.72;;;2.60;;
70102;SDS011;57470;50.034;15.256;2022-11-27T02:32:57;12.10;;;3.60;;
70102;SDS011;57470;50.034;15.256;2022-11-27T02:38:01;9.10;;;2.72;;
70102;SDS011;57470;50.034;15.256;2022-11-27T02:40:43;10.60;;;2.70;;
70102;SDS011;57470;50.034;15.256;2022-11-27T02:43:19;7.20;;;3.35;;
70102;SDS011;57470;50.034;15.256;2022-11-27T02:46:01;7.13;;;2.60;;
70102;SDS011;57470;50.034;15.256;2022-11-27T02:48:37;8.65;;;2.90;;
70102;SDS011;57470;50.034;15.256;2022-11-27T02:51:12;5.18;;;1.63;;
70102;SDS011;57470;50.034;15.256;2022-11-27T02:53:47;8.23;;;2.80;;
70102;SDS011;57470;50.034;15.256;2022-11-27T02:56:27;7.25;;;2.60;;
70102;SDS011;57470;50.034;15.256;2022-11-27T02:58:56;5.38;;;2.00;;
70102;SDS011;57470;50.034;15.256;2022-11-27T03:01:26;11.25;;;3.25;;
70102;SDS011;57470;50.034;15.256;2022-11-27T03:03:57;8.18;;;2.60;;
70102;SDS011;57470;50.034;15.256;2022-11-27T03:06:30;6.30;;;3.17;;
70102;SDS011;57470;50.034;15.256;2022-11-27T03:09:04;6.63;;;2.03;;
70102;SDS011;57470;50.034;15.256;2022-11-27T03:11:38;9.32;;;2.25;;
70102;SDS011;57470;50.034;15.256;2022-11-27T03:14:05;12.88;;;3.10;;
70102;SDS011;57470;50.034;15.256;2022-11-27T03:16:41;11.25;;;2.80;;
70102;SDS011;57470;50.034;15.256;2022-11-27T03:22:17;7.03;;;2.05;;
70102;SDS011;57470;50.034;15.256;2022-11-27T03:24:42;10.83;;;2.90;;
70102;SDS011;57470;50.034;15.256;2022-11-27T03:27:08;7.45;;;2.33;;
70102;SDS011;57470;50.034;15.256;2022-11-27T03:29:48;6.07;;;2.25;;
70102;SDS011;57470;50.034;15.256;2022-11-27T03:32:18;21.42;;;2.33;;
70102;SDS011;57470;50.034;15.256;2022-11-27T03:34:44;6.03;;;1.83;;
70102;SDS011;57470;50.034;15.256;2022-11-27T03:37:10;5.38;;;2.35;;
70102;SDS011;57470;50.034;15.256;2022-11-27T03:39:36;5.77;;;1.93;;
70102;SDS011;57470;50.034;15.256;2022-11-27T03:42:05;5.10;;;1.52;;
70102;SDS011;57470;50.034;15.256;2022-11-27T03:45:37;7.10;;;1.95;;
70102;SDS011;57470;50.034;15.256;2022-11-27T03:51:00;9.07;;;2.17;;
70102;SDS011;57470;50.034;15.256;2022-11-27T04:01:44;7.63;;;3.22;;
70102;SDS011;57470;50.034;15.256;2022-11-27T04:04:10;9.03;;;3.00;;
70102;SDS011;57470;50.034;15.256;2022-11-27T04:06:36;8.00;;;2.85;;
70102;SDS011;57470;50.034;15.256;2022-11-27T04:09:01;12.60;;;4.40;;
70102;SDS011;57470;50.034;15.256;2022-11-27T04:11:27;12.52;;;2.85;;
70102;SDS011;57470;50.034;15.256;2022-11-27T04:13:52;8.93;;;2.63;;
70102;SDS011;57470;50.034;15.256;2022-11-27T04:16:18;5.63;;;1.90;;
70102;SDS011;57470;50.034;15.256;2022-11-27T04:18:43;7.40;;;2.45;;
70102;SDS011;57470;50.034;15.256;2022-11-27T04:21:09;15.10;;;2.70;;
70102;SDS011;57470;50.034;15.256;2022-11-27T04:23:36;7.38;;;1.95;;
70102;SDS011;57470;50.034;15.256;2022-11-27T04:26:02;5.63;;;2.27;;
70102;SDS011;57470;50.034;15.256;2022-11-27T04:28:28;5.82;;;1.70;;
70102;SDS011;57470;50.034;15.256;2022-11-27T04:30:54;6.53;;;2.40;;
70102;SDS011;57470;50.034;15.256;2022-11-27T04:33:20;6.93;;;2.43;;
70102;SDS011;57470;50.034;15.256;2022-11-27T04:35:47;8.68;;;2.70;;
70102;SDS011;57470;50.034;15.256;2022-11-27T04:38:12;7.75;;;2.50;;
70102;SDS011;57470;50.034;15.256;2022-11-27T04:40:38;23.73;;;2.72;;
70102;SDS011;57470;50.034;15.256;2022-11-27T04:43:04;6.73;;;1.87;;
70102;SDS011;57470;50.034;15.256;2022-11-27T04:45:29;7.67;;;3.23;;
70102;SDS011;57470;50.034;15.256;2022-11-27T04:47:55;8.13;;;2.57;;
70102;SDS011;57470;50.034;15.256;2022-11-27T04:50:20;11.53;;;2.80;;
70102;SDS011;57470;50.034;15.256;2022-11-27T04:52:45;5.85;;;2.05;;
70102;SDS011;57470;50.034;15.256;2022-11-27T04:55:11;5.53;;;1.80;;
70102;SDS011;57470;50.034;15.256;2022-11-27T04:57:36;6.57;;;2.37;;
70102;SDS011;57470;50.034;15.256;2022-11-27T05:00:02;4.50;;;1.80;;
70102;SDS011;57470;50.034;15.256;2022-11-27T05:02:28;11.60;;;3.72;;
70102;SDS011;57470;50.034;15.256;2022-11-27T05:04:54;5.17;;;2.07;;
70102;SDS011;57470;50.034;15.256;2022-11-27T05:07:19;8.07;;;1.35;;
70102;SDS011;57470;50.034;15.256;2022-11-27T05:09:45;12.47;;;3.07;;
70102;SDS011;57470;50.034;15.256;2022-11-27T05:12:10;7.60;;;2.70;;
70102;SDS011;57470;50.034;15.256;2022-11-27T05:14:36;7.80;;;3.03;;
70102;SDS011;57470;50.034;15.256;2022-11-27T05:17:01;4.13;;;1.98;;
70102;SDS011;57470;50.034;15.256;2022-11-27T05:19:27;5.73;;;1.80;;
70102;SDS011;57470;50.034;15.256;2022-11-27T05:21:54;5.82;;;2.40;;
70102;SDS011;57470;50.034;15.256;2022-11-27T05:24:20;6.77;;;2.60;;
70102;SDS011;57470;50.034;15.256;2022-11-27T05:26:47;7.05;;;1.73;;
70102;SDS011;57470;50.034;15.256;2022-11-27T05:29:13;7.38;;;2.60;;
70102;SDS011;57470;50.034;15.256;2022-11-27T05:31:39;10.23;;;2.47;;
70102;SDS011;57470;50.034;15.256;2022-11-27T05:34:06;11.57;;;2.33;;
70102;SDS011;57470;50.034;15.256;2022-11-27T05:36:32;6.40;;;2.30;;
70102;SDS011;57470;50.034;15.256;2022-11-27T05:38:58;10.85;;;2.50;;
70102;SDS011;57470;50.034;15.256;2022-11-27T05:41:25;4.72;;;2.05;;
70102;SDS011;57470;50.034;15.256;2022-11-27T05:43:50;5.97;;;2.53;;
70102;SDS011;57470;50.034;15.256;2022-11-27T05:46:17;7.77;;;2.20;;
70102;SDS011;57470;50.034;15.256;2022-11-27T05:48:46;4.95;;;1.80;;
70102;SDS011;57470;50.034;15.256;2022-11-27T05:51:12;5.00;;;1.45;;
70102;SDS011;57470;50.034;15.256;2022-11-27T05:53:38;6.13;;;2.70;;
70102;SDS011;57470;50.034;15.256;2022-11-27T05:56:04;5.97;;;2.63;;
70102;SDS011;57470;50.034;15.256;2022-11-27T05:58:32;12.00;;;3.60;;
70102;SDS011;57470;50.034;15.256;2022-11-27T06:00:57;7.40;;;2.40;;
70102;SDS011;57470;50.034;15.256;2022-11-27T06:03:23;11.03;;;2.37;;
70102;SDS011;57470;50.034;15.256;2022-11-27T06:05:48;7.40;;;2.77;;
70102;SDS011;57470;50.034;15.256;2022-11-27T06:08:14;7.57;;;2.58;;
70102;SDS011;57470;50.034;15.256;2022-11-27T06:10:39;4.20;;;1.50;;
70102;SDS011;57470;50.034;15.256;2022-11-27T06:13:05;6.13;;;1.87;;
70102;SDS011;57470;50.034;15.256;2022-11-27T06:15:31;6.60;;;2.83;;
70102;SDS011;57470;50.034;15.256;2022-11-27T06:17:56;7.77;;;2.63;;
70102;SDS011;57470;50.034;15.256;2022-11-27T06:20:22;10.37;;;3.80;;
70102;SDS011;57470;50.034;15.256;2022-11-27T06:22:48;13.73;;;3.05;;
70102;SDS011;57470;50.034;15.256;2022-11-27T06:25:13;20.60;;;3.37;;
70102;SDS011;57470;50.034;15.256;2022-11-27T06:27:39;13.00;;;3.33;;
70102;SDS011;57470;50.034;15.256;2022-11-27T06:30:04;12.40;;;2.77;;
70102;SDS011;57470;50.034;15.256;2022-11-27T06:32:30;7.55;;;2.55;;
70102;SDS011;57470;50.034;15.256;2022-11-27T06:34:56;12.70;;;2.70;;
70102;SDS011;57470;50.034;15.256;2022-11-27T06:37:21;5.53;;;1.80;;
70102;SDS011;57470;50.034;15.256;2022-11-27T06:39:47;7.68;;;2.20;;
70102;SDS011;57470;50.034;15.256;2022-11-27T06:42:13;6.30;;;2.30;;
70102;SDS011;57470;50.034;15.256;2022-11-27T06:44:39;4.47;;;1.80;;
70102;SDS011;57470;50.034;15.256;2022-11-27T06:47:04;5.27;;;1.70;;
70102;SDS011;57470;50.034;15.256;2022-11-27T06:49:30;9.13;;;1.80;;
70102;SDS011;57470;50.034;15.256;2022-11-27T06:51:55;8.50;;;2.80;;
70102;SDS011;57470;50.034;15.256;2022-11-27T06:54:21;4.50;;;1.77;;
70102;SDS011;57470;50.034;15.256;2022-11-27T06:56:47;3.47;;;1.03;;
70102;SDS011;57470;50.034;15.256;2022-11-27T06:59:14;10.40;;;3.20;;
70102;SDS011;57470;50.034;15.256;2022-11-27T07:01:39;10.15;;;2.30;;
70102;SDS011;57470;50.034;15.256;2022-11-27T07:04:07;6.82;;;2.05;;
70102;SDS011;57470;50.034;15.256;2022-11-27T07:06:34;8.75;;;2.10;;
70102;SDS011;57470;50.034;15.256;2022-11-27T07:09:00;5.65;;;2.35;;
70102;SDS011;57470;50.034;15.256;2022-11-27T07:11:26;4.20;;;1.53;;
70102;SDS011;57470;50.034;15.256;2022-11-27T07:13:54;6.30;;;2.47;;
70102;SDS011;57470;50.034;15.256;2022-11-27T07:16:21;7.45;;;2.17;;
70102;SDS011;57470;50.034;15.256;2022-11-27T07:18:48;10.47;;;2.70;;
70102;SDS011;57470;50.034;15.256;2022-11-27T07:21:17;7.78;;;2.42;;
70102;SDS011;57470;50.034;15.256;2022-11-27T07:23:43;7.85;;;2.95;;
70102;SDS011;57470;50.034;15.256;2022-11-27T07:26:10;5.60;;;2.13;;
70102;SDS011;57470;50.034;15.256;2022-11-27T07:28:42;5.60;;;2.25;;
70102;SDS011;57470;50.034;15.256;2022-11-27T07:31:09;7.78;;;2.85;;
70102;SDS011;57470;50.034;15.256;2022-11-27T07:33:35;10.45;;;2.40;;
70102;SDS011;57470;50.034;15.256;2022-11-27T07:36:11;11.50;;;3.37;;
70102;SDS011;57470;50.034;15.256;2022-11-27T07:38:41;9.77;;;3.75;;
70102;SDS011;57470;50.034;15.256;2022-11-27T07:41:07;7.93;;;3.63;;
70102;SDS011;57470;50.034;15.256;2022-11-27T07:43:33;9.67;;;3.00;;
70102;SDS011;57470;50.034;15.256;2022-11-27T07:46:02;8.90;;;3.58;;
70102;SDS011;57470;50.034;15.256;2022-11-27T07:48:29;14.13;;;6.23;;
70102;SDS011;57470;50.034;15.256;2022-11-27T07:50:54;13.98;;;5.60;;
70102;SDS011;57470;50.034;15.256;2022-11-27T07:53:20;12.17;;;5.83;;
70102;SDS011;57470;50.034;15.256;2022-11-27T07:55:45;9.47;;;4.03;;
70102;SDS011;57470;50.034;15.256;2022-11-27T07:58:11;14.37;;;5.40;;
70102;SDS011;57470;50.034;15.256;2022-11-27T08:00:37;13.82;;;6.43;;
70102;SDS011;57470;50.034;15.256;2022-11-27T08:03:03;11.05;;;5.43;;
70102;SDS011;57470;50.034;15.256;2022-11-27T08:05:33;9.52;;;4.63;;
70102;SDS011;57470;50.034;15.256;2022-11-27T08:08:00;7.77;;;3.20;;
70102;SDS011;57470;50.034;15.256;2022-11-27T08:10:28;14.43;;;5.38;;
70102;SDS011;57470;50.034;15.256;2022-11-27T08:13:03;13.55;;;5.32;;
70102;SDS011;57470;50.034;15.256;2022-11-27T08:15:29;18.10;;;5.25;;
70102;SDS011;57470;50.034;15.256;2022-11-27T08:17:56;15.60;;;3.55;;
70102;SDS011;57470;50.034;15.256;2022-11-27T08:20:21;10.90;;;3.80;;
70102;SDS011;57470;50.034;15.256;2022-11-27T08:22:47;8.80;;;3.63;;
70102;SDS011;57470;50.034;15.256;2022-11-27T08:25:13;9.95;;;4.28;;
70102;SDS011;57470;50.034;15.256;2022-11-27T08:27:38;11.13;;;4.40;;
70102;SDS011;57470;50.034;15.256;2022-11-27T08:30:04;8.15;;;3.38;;
70102;SDS011;57470;50.034;15.256;2022-11-27T08:32:30;12.57;;;3.33;;
70102;SDS011;57470;50.034;15.256;2022-11-27T08:34:56;5.82;;;2.50;;
70102;SDS011;57470;50.034;15.256;2022-11-27T08:37:21;6.27;;;2.63;;
70102;SDS011;57470;50.034;15.256;2022-11-27T08:39:47;19.67;;;5.18;;
70102;SDS011;57470;50.034;15.256;2022-11-27T08:42:12;14.80;;;6.32;;
70102;SDS011;57470;50.034;15.256;2022-11-27T08:44:38;76.00;;;18.93;;
70102;SDS011;57470;50.034;15.256;2022-11-27T08:47:03;53.77;;;23.70;;
70102;SDS011;57470;50.034;15.256;2022-11-27T08:49:29;25.77;;;12.10;;
70102;SDS011;57470;50.034;15.256;2022-11-27T08:51:54;14.70;;;4.80;;
70102;SDS011;57470;50.034;15.256;2022-11-27T08:54:19;16.90;;;6.67;;
70102;SDS011;57470;50.034;15.256;2022-11-27T08:56:45;10.13;;;5.77;;
70102;SDS011;57470;50.034;15.256;2022-11-27T08:59:10;9.52;;;4.70;;
70102;SDS011;57470;50.034;15.256;2022-11-27T09:01:36;9.43;;;3.80;;
70102;SDS011;57470;50.034;15.256;2022-11-27T09:04:01;7.50;;;3.47;;
70102;SDS011;57470;50.034;15.256;2022-11-27T09:06:28;8.47;;;3.30;;
70102;SDS011;57470;50.034;15.256;2022-11-27T09:08:55;11.27;;;4.35;;
70102;SDS011;57470;50.034;15.256;2022-11-27T09:11:25;9.10;;;4.32;;
70102;SDS011;57470;50.034;15.256;2022-11-27T09:13:52;7.07;;;2.83;;
70102;SDS011;57470;50.034;15.256;2022-11-27T09:16:18;9.90;;;3.43;;
70102;SDS011;57470;50.034;15.256;2022-11-27T09:18:45;11.80;;;2.97;;
70102;SDS011;57470;50.034;15.256;2022-11-27T09:21:14;9.48;;;3.13;;
70102;SDS011;57470;50.034;15.256;2022-11-27T09:23:41;8.15;;;3.70;;
70102;SDS011;57470;50.034;15.256;2022-11-27T09:26:11;8.70;;;2.43;;
70102;SDS011;57470;50.034;15.256;2022-11-27T09:28:38;4.25;;;1.83;;
70102;SDS011;57470;50.034;15.256;2022-11-27T09:31:05;6.80;;;1.75;;
70102;SDS011;57470;50.034;15.256;2022-11-27T09:33:32;4.70;;;1.50;;
70102;SDS011;57470;50.034;15.256;2022-11-27T09:36:06;6.63;;;3.58;;
70102;SDS011;57470;50.034;15.256;2022-11-27T09:38:34;5.57;;;2.08;;
70102;SDS011;57470;50.034;15.256;2022-11-27T09:43:35;14.65;;;2.78;;
70102;SDS011;57470;50.034;15.256;2022-11-27T09:46:08;9.77;;;4.80;;
70102;SDS011;57470;50.034;15.256;2022-11-27T09:48:41;6.28;;;2.90;;
70102;SDS011;57470;50.034;15.256;2022-11-27T09:51:32;7.80;;;3.65;;
70102;SDS011;57470;50.034;15.256;2022-11-27T09:54:02;5.20;;;1.75;;
70102;SDS011;57470;50.034;15.256;2022-11-27T09:56:29;6.43;;;2.78;;
70102;SDS011;57470;50.034;15.256;2022-11-27T09:58:58;6.57;;;2.47;;
70102;SDS011;57470;50.034;15.256;2022-11-27T10:01:28;6.97;;;2.90;;
70102;SDS011;57470;50.034;15.256;2022-11-27T10:03:55;6.32;;;1.75;;
70102;SDS011;57470;50.034;15.256;2022-11-27T10:06:30;5.57;;;2.15;;
70102;SDS011;57470;50.034;15.256;2022-11-27T10:14:38;6.53;;;2.97;;
70102;SDS011;57470;50.034;15.256;2022-11-27T10:17:13;5.45;;;2.40;;
70102;SDS011;57470;50.034;15.256;2022-11-27T10:30:22;9.68;;;3.17;;
70102;SDS011;57470;50.034;15.256;2022-11-27T10:32:49;7.40;;;2.73;;
70102;SDS011;57470;50.034;15.256;2022-11-27T10:35:19;8.48;;;2.90;;
70102;SDS011;57470;50.034;15.256;2022-11-27T10:37:47;10.02;;;3.22;;
70102;SDS011;57470;50.034;15.256;2022-11-27T10:48:13;13.98;;;3.78;;
70102;SDS011;57470;50.034;15.256;2022-11-27T10:50:39;13.77;;;5.75;;
70102;SDS011;57470;50.034;15.256;2022-11-27T10:53:10;6.90;;;3.05;;
70102;SDS011;57470;50.034;15.256;2022-11-27T10:58:26;8.67;;;2.60;;
70102;SDS011;57470;50.034;15.256;2022-11-27T11:01:02;6.85;;;3.10;;
70102;SDS011;57470;50.034;15.256;2022-11-27T11:03:31;7.43;;;1.58;;
70102;SDS011;57470;50.034;15.256;2022-11-27T11:05:58;8.02;;;2.42;;
70102;SDS011;57470;50.034;15.256;2022-11-27T11:08:26;11.05;;;3.40;;
70102;SDS011;57470;50.034;15.256;2022-11-27T11:11:04;6.97;;;1.73;;
70102;SDS011;57470;50.034;15.256;2022-11-27T11:13:32;7.95;;;2.22;;
70102;SDS011;57470;50.034;15.256;2022-11-27T11:18:45;4.93;;;1.63;;
70102;SDS011;57470;50.034;15.256;2022-11-27T11:21:26;3.67;;;1.77;;
70102;SDS011;57470;50.034;15.256;2022-11-27T11:26:44;7.13;;;1.63;;
70102;SDS011;57470;50.034;15.256;2022-11-27T11:35:00;3.97;;;1.10;;
70102;SDS011;57470;50.034;15.256;2022-11-27T11:37:34;6.53;;;2.88;;
70102;SDS011;57470;50.034;15.256;2022-11-27T11:42:58;5.53;;;1.38;;
70102;SDS011;57470;50.034;15.256;2022-11-27T11:45:32;8.95;;;3.38;;
70102;SDS011;57470;50.034;15.256;2022-11-27T11:55:47;7.93;;;2.47;;
70102;SDS011;57470;50.034;15.256;2022-11-27T12:01:28;11.65;;;3.00;;
70102;SDS011;57470;50.034;15.256;2022-11-27T12:21:59;16.73;;;4.43;;
70102;SDS011;57470;50.034;15.256;2022-11-27T12:24:53;19.95;;;5.20;;
70102;SDS011;57470;50.034;15.256;2022-11-27T12:30:24;4.50;;;1.83;;
70102;SDS011;57470;50.034;15.256;2022-11-27T12:38:32;6.97;;;2.33;;
70102;SDS011;57470;50.034;15.256;2022-11-27T12:43:58;5.65;;;1.83;;
70102;SDS011;57470;50.034;15.256;2022-11-27T12:49:23;5.90;;;1.83;;
70102;SDS011;57470;50.034;15.256;2022-11-27T12:51:56;4.80;;;1.50;;
70102;SDS011;57470;50.034;15.256;2022-11-27T12:57:20;6.43;;;2.03;;
70102;SDS011;57470;50.034;15.256;2022-11-27T13:00:03;6.43;;;1.65;;
70102;SDS011;57470;50.034;15.256;2022-11-27T13:02:41;6.90;;;1.98;;
70102;SDS011;57470;50.034;15.256;2022-11-27T13:05:20;4.25;;;1.63;;
70102;SDS011;57470;50.034;15.256;2022-11-27T13:10:30;6.17;;;1.57;;
70102;SDS011;57470;50.034;15.256;2022-11-27T13:15:33;4.45;;;1.63;;
70102;SDS011;57470;50.034;15.256;2022-11-27T13:18:38;7.25;;;1.90;;
70102;SDS011;57470;50.034;15.256;2022-11-27T13:21:00;7.32;;;1.60;;
70102;SDS011;57470;50.034;15.256;2022-11-27T13:23:30;8.60;;;1.47;;
70102;SDS011;57470;50.034;15.256;2022-11-27T13:25:56;5.93;;;1.77;;
70102;SDS011;57470;50.034;15.256;2022-11-27T13:28:31;6.53;;;2.17;;
70102;SDS011;57470;50.034;15.256;2022-11-27T13:31:03;4.47;;;1.60;;
70102;SDS011;57470;50.034;15.256;2022-11-27T13:33:34;5.00;;;1.83;;
70102;SDS011;57470;50.034;15.256;2022-11-27T13:36:01;5.40;;;1.60;;
70102;SDS011;57470;50.034;15.256;2022-11-27T13:38:31;6.18;;;1.58;;
70102;SDS011;57470;50.034;15.256;2022-11-27T13:40:57;6.40;;;2.25;;
70102;SDS011;57470;50.034;15.256;2022-11-27T13:43:40;3.20;;;0.98;;
70102;SDS011;57470;50.034;15.256;2022-11-27T13:46:07;6.45;;;2.72;;
70102;SDS011;57470;50.034;15.256;2022-11-27T13:48:57;3.93;;;1.00;;
70102;SDS011;57470;50.034;15.256;2022-11-27T13:51:30;5.75;;;1.88;;
70102;SDS011;57470;50.034;15.256;2022-11-27T13:54:10;4.00;;;1.48;;
70102;SDS011;57470;50.034;15.256;2022-11-27T13:56:37;6.47;;;2.22;;
70102;SDS011;57470;50.034;15.256;2022-11-27T13:59:14;6.95;;;2.45;;
70102;SDS011;57470;50.034;15.256;2022-11-27T14:02:03;6.43;;;2.20;;
70102;SDS011;57470;50.034;15.256;2022-11-27T14:04:30;6.40;;;3.05;;
70102;SDS011;57470;50.034;15.256;2022-11-27T14:10:10;7.97;;;2.95;;
70102;SDS011;57470;50.034;15.256;2022-11-27T14:12:29;10.88;;;3.15;;
70102;SDS011;57470;50.034;15.256;2022-11-27T14:15:02;6.33;;;2.40;;
70102;SDS011;57470;50.034;15.256;2022-11-27T14:17:35;13.23;;;5.25;;
70102;SDS011;57470;50.034;15.256;2022-11-27T14:22:43;9.60;;;2.88;;
70102;SDS011;57470;50.034;15.256;2022-11-27T14:25:18;12.43;;;4.80;;
70102;SDS011;57470;50.034;15.256;2022-11-27T14:27:44;19.53;;;4.27;;
70102;SDS011;57470;50.034;15.256;2022-11-27T14:30:30;20.60;;;5.47;;
70102;SDS011;57470;50.034;15.256;2022-11-27T14:32:59;12.25;;;4.00;;
70102;SDS011;57470;50.034;15.256;2022-11-27T14:35:27;7.90;;;3.05;;
70102;SDS011;57470;50.034;15.256;2022-11-27T14:37:53;13.97;;;4.53;;
70102;SDS011;57470;50.034;15.256;2022-11-27T14:40:25;10.38;;;4.13;;
70102;SDS011;57470;50.034;15.256;2022-11-27T14:42:52;9.23;;;3.60;;
70102;SDS011;57470;50.034;15.256;2022-11-27T14:45:19;10.77;;;3.93;;
70102;SDS011;57470;50.034;15.256;2022-11-27T14:47:47;8.50;;;3.60;;
70102;SDS011;57470;50.034;15.256;2022-11-27T14:50:15;13.67;;;3.83;;
70102;SDS011;57470;50.034;15.256;2022-11-27T14:52:42;7.18;;;2.63;;
70102;SDS011;57470;50.034;15.256;2022-11-27T14:55:15;11.80;;;3.50;;
70102;SDS011;57470;50.034;15.256;2022-11-27T14:57:42;11.13;;;3.88;;
70102;SDS011;57470;50.034;15.256;2022-11-27T15:00:20;13.85;;;3.70;;
70102;SDS011;57470;50.034;15.256;2022-11-27T15:03:05;12.60;;;4.53;;
70102;SDS011;57470;50.034;15.256;2022-11-27T15:05:32;11.48;;;3.72;;
70102;SDS011;57470;50.034;15.256;2022-11-27T15:08:00;10.85;;;4.45;;
70102;SDS011;57470;50.034;15.256;2022-11-27T15:10:28;8.95;;;3.65;;
70102;SDS011;57470;50.034;15.256;2022-11-27T15:12:57;11.20;;;4.30;;
70102;SDS011;57470;50.034;15.256;2022-11-27T15:15:28;14.10;;;5.00;;
70102;SDS011;57470;50.034;15.256;2022-11-27T15:18:02;13.75;;;7.50;;
70102;SDS011;57470;50.034;15.256;2022-11-27T15:22:58;10.13;;;4.60;;
70102;SDS011;57470;50.034;15.256;2022-11-27T15:27:53;10.60;;;4.70;;
70102;SDS011;57470;50.034;15.256;2022-11-27T15:30:18;14.00;;;5.83;;
70102;SDS011;57470;50.034;15.256;2022-11-27T15:32:45;12.10;;;6.47;;
70102;SDS011;57470;50.034;15.256;2022-11-27T15:35:33;10.10;;;4.47;;
70102;SDS011;57470;50.034;15.256;2022-11-27T15:38:06;13.40;;;4.65;;
70102;SDS011;57470;50.034;15.256;2022-11-27T15:40:35;13.63;;;5.95;;
70102;SDS011;57470;50.034;15.256;2022-11-27T15:43:12;13.13;;;5.10;;
70102;SDS011;57470;50.034;15.256;2022-11-27T15:45:39;10.82;;;6.53;;
70102;SDS011;57470;50.034;15.256;2022-11-27T15:48:13;13.20;;;5.47;;
70102;SDS011;57470;50.034;15.256;2022-11-27T15:50:40;16.88;;;4.88;;
70102;SDS011;57470;50.034;15.256;2022-11-27T15:53:05;11.83;;;5.10;;
70102;SDS011;57470;50.034;15.256;2022-11-27T15:55:31;15.80;;;5.07;;
70102;SDS011;57470;50.034;15.256;2022-11-27T15:57:57;11.52;;;4.32;;
70102;SDS011;57470;50.034;15.256;2022-11-27T16:00:23;6.50;;;4.27;;
70102;SDS011;57470;50.034;15.256;2022-11-27T16:02:50;15.27;;;7.28;;
70102;SDS011;57470;50.034;15.256;2022-11-27T16:05:16;20.52;;;6.25;;
70102;SDS011;57470;50.034;15.256;2022-11-27T16:07:42;17.75;;;6.47;;
70102;SDS011;57470;50.034;15.256;2022-11-27T16:10:07;12.47;;;5.33;;
70102;SDS011;57470;50.034;15.256;2022-11-27T16:12:33;7.35;;;3.55;;
70102;SDS011;57470;50.034;15.256;2022-11-27T16:14:59;20.97;;;6.67;;
70102;SDS011;57470;50.034;15.256;2022-11-27T16:17:24;12.10;;;4.37;;
70102;SDS011;57470;50.034;15.256;2022-11-27T16:19:50;14.93;;;6.17;;
70102;SDS011;57470;50.034;15.256;2022-11-27T16:22:15;21.00;;;6.05;;
70102;SDS011;57470;50.034;15.256;2022-11-27T16:24:40;13.20;;;6.68;;
70102;SDS011;57470;50.034;15.256;2022-11-27T16:27:06;21.83;;;9.20;;
70102;SDS011;57470;50.034;15.256;2022-11-27T16:29:31;21.83;;;7.37;;
70102;SDS011;57470;50.034;15.256;2022-11-27T16:31:57;19.30;;;9.27;;
70102;SDS011;57470;50.034;15.256;2022-11-27T16:34:22;14.00;;;6.93;;
70102;SDS011;57470;50.034;15.256;2022-11-27T16:36:48;13.37;;;6.20;;
70102;SDS011;57470;50.034;15.256;2022-11-27T16:39:15;24.90;;;7.60;;
70102;SDS011;57470;50.034;15.256;2022-11-27T16:41:41;11.77;;;4.63;;
70102;SDS011;57470;50.034;15.256;2022-11-27T16:44:10;20.30;;;5.33;;
70102;SDS011;57470;50.034;15.256;2022-11-27T16:46:37;26.98;;;9.73;;
70102;SDS011;57470;50.034;15.256;2022-11-27T16:49:04;13.57;;;5.20;;
70102;SDS011;57470;50.034;15.256;2022-11-27T16:51:33;12.15;;;4.47;;
70102;SDS011;57470;50.034;15.256;2022-11-27T16:54:01;11.63;;;3.70;;
70102;SDS011;57470;50.034;15.256;2022-11-27T16:56:28;13.43;;;5.15;;
70102;SDS011;57470;50.034;15.256;2022-11-27T16:58:56;8.52;;;3.67;;